<?xml version="1.0" encoding="UTF-8"?>
<gpx version="1.1" creator="2bulu-scraper" xmlns="http://www.topografix.com/GPX/1/1">
  <metadata><name>自贡荣县</name><desc>source: 2bulu.com trackId=88223278; exported 2026-09-01T14:58:18.431Z</desc>
    <bounds minlat="29.2719925" minlon="104.2826417" maxlat="29.285051" maxlon="104.2924695"/>
    <link href="https://www.2bulu.com/track/t-Z0p1X8aqf3vp%252FR2KBg5Tzw%253D%253D.htm"><text>2bulu 源页面</text></link>
  </metadata>
  <wpt lat="29.2756036" lon="104.2901992"><ele>303</ele><name>
        </name></wpt>
  <wpt lat="29.2756036" lon="104.2901992"><ele>303</ele><name>村委会起点
        </name></wpt>
  <wpt lat="29.2755218" lon="104.2901516"><ele>303</ele><name>
        </name></wpt>
  <wpt lat="29.2753414" lon="104.2901415"><ele>303</ele><name>3.5米
        </name></wpt>
  <wpt lat="29.2719925" lon="104.285598"><ele>283</ele><name>三平塘
        </name></wpt>
  <wpt lat="29.2719925" lon="104.285598"><ele>283</ele><name>
        </name></wpt>
  <wpt lat="29.2822934" lon="104.2826417"><ele>292</ele><name>起点
        </name></wpt>
  <wpt lat="29.2822934" lon="104.2826417"><ele>292</ele><name>3.5米  起点
        </name></wpt>
  <wpt lat="29.2831231" lon="104.2831137"><ele>300</ele><name>石板坳 起点
        </name></wpt>
  <wpt lat="29.2831231" lon="104.2831137"><ele>300</ele><name>
        </name></wpt>
  <wpt lat="29.2827784" lon="104.291806"><ele>303</ele><name>起点
        </name></wpt>
  <wpt lat="29.2827784" lon="104.291806"><ele>303</ele><name>
        </name></wpt>
  <wpt lat="29.2804838" lon="104.2917729"><ele>293</ele><name>
        </name></wpt>
  <wpt lat="29.2804838" lon="104.2917729"><ele>293</ele><name>
        </name></wpt>
  <wpt lat="29.2804838" lon="104.2917729"><ele>293</ele><name>
        </name></wpt>
  <trk><name>自贡荣县</name>
      <trkseg>
        <trkpt lat="29.2756958" lon="104.2901998"><ele>301.69</ele><time>2026-08-10T15:27:29.000Z</time></trkpt>
        <trkpt lat="29.2756036" lon="104.2901992"><ele>301.69</ele><time>2026-08-10T15:27:46.000Z</time></trkpt>
        <trkpt lat="29.2755218" lon="104.2901516"><ele>302.36</ele><time>2026-08-10T15:28:32.000Z</time></trkpt>
        <trkpt lat="29.2754322" lon="104.290127"><ele>302.49</ele><time>2026-08-10T15:28:52.000Z</time></trkpt>
        <trkpt lat="29.2753414" lon="104.2901415"><ele>302.13</ele><time>2026-08-10T15:29:20.000Z</time></trkpt>
        <trkpt lat="29.275392" lon="104.290124"><ele>302.51</ele><time>2026-08-10T15:29:46.000Z</time></trkpt>
        <trkpt lat="29.275538" lon="104.2901308"><ele>302.52</ele><time>2026-08-10T15:31:30.000Z</time></trkpt>
        <trkpt lat="29.2756285" lon="104.2901615"><ele>301.2</ele><time>2026-08-10T15:36:46.000Z</time></trkpt>
        <trkpt lat="29.2756424" lon="104.2902117"><ele>300.4</ele><time>2026-08-10T15:36:52.000Z</time></trkpt>
        <trkpt lat="29.2755744" lon="104.2901702"><ele>300.56</ele><time>2026-08-10T15:37:06.000Z</time></trkpt>
        <trkpt lat="29.2755442" lon="104.2901464"><ele>301.19</ele><time>2026-08-10T15:37:12.000Z</time></trkpt>
        <trkpt lat="29.2754338" lon="104.2901534"><ele>301.75</ele><time>2026-08-10T15:38:22.000Z</time></trkpt>
        <trkpt lat="29.2752325" lon="104.2901631"><ele>302.18</ele><time>2026-08-10T15:38:30.000Z</time></trkpt>
        <trkpt lat="29.2751093" lon="104.2901479"><ele>303.64</ele><time>2026-08-10T15:38:36.000Z</time></trkpt>
        <trkpt lat="29.275012" lon="104.2901179"><ele>305</ele><time>2026-08-10T15:38:42.000Z</time></trkpt>
        <trkpt lat="29.2749453" lon="104.2900388"><ele>306.09</ele><time>2026-08-10T15:38:48.000Z</time></trkpt>
        <trkpt lat="29.274904" lon="104.2899235"><ele>306.66</ele><time>2026-08-10T15:38:54.000Z</time></trkpt>
        <trkpt lat="29.2748625" lon="104.2898123"><ele>307.01</ele><time>2026-08-10T15:39:00.000Z</time></trkpt>
        <trkpt lat="29.2747761" lon="104.2897207"><ele>307.54</ele><time>2026-08-10T15:39:06.000Z</time></trkpt>
        <trkpt lat="29.2746548" lon="104.2896831"><ele>307.79</ele><time>2026-08-10T15:39:12.000Z</time></trkpt>
        <trkpt lat="29.2745358" lon="104.2896671"><ele>308.22</ele><time>2026-08-10T15:39:18.000Z</time></trkpt>
        <trkpt lat="29.2744141" lon="104.2896253"><ele>308.91</ele><time>2026-08-10T15:39:24.000Z</time></trkpt>
        <trkpt lat="29.2743406" lon="104.28953"><ele>309.84</ele><time>2026-08-10T15:39:30.000Z</time></trkpt>
        <trkpt lat="29.2743553" lon="104.2894199"><ele>310.62</ele><time>2026-08-10T15:39:34.000Z</time></trkpt>
        <trkpt lat="29.2744106" lon="104.2892913"><ele>311.16</ele><time>2026-08-10T15:39:40.000Z</time></trkpt>
        <trkpt lat="29.2744492" lon="104.2892023"><ele>312.01</ele><time>2026-08-10T15:39:48.000Z</time></trkpt>
        <trkpt lat="29.2744863" lon="104.2890971"><ele>313.1</ele><time>2026-08-10T15:40:10.000Z</time></trkpt>
        <trkpt lat="29.2745208" lon="104.2889889"><ele>314.7</ele><time>2026-08-10T15:40:18.000Z</time></trkpt>
        <trkpt lat="29.2745316" lon="104.2888684"><ele>316.3</ele><time>2026-08-10T15:40:28.000Z</time></trkpt>
        <trkpt lat="29.2745188" lon="104.2889759"><ele>317.66</ele><time>2026-08-10T15:43:24.000Z</time></trkpt>
        <trkpt lat="29.2744844" lon="104.2890969"><ele>317.99</ele><time>2026-08-10T15:43:40.000Z</time></trkpt>
        <trkpt lat="29.2744609" lon="104.2892024"><ele>318.36</ele><time>2026-08-10T15:43:44.000Z</time></trkpt>
        <trkpt lat="29.2744177" lon="104.2893201"><ele>317.51</ele><time>2026-08-10T15:43:48.000Z</time></trkpt>
        <trkpt lat="29.2743706" lon="104.2894464"><ele>316.32</ele><time>2026-08-10T15:43:52.000Z</time></trkpt>
        <trkpt lat="29.2742889" lon="104.2895074"><ele>314.65</ele><time>2026-08-10T15:44:00.000Z</time></trkpt>
        <trkpt lat="29.2742009" lon="104.2894724"><ele>313.45</ele><time>2026-08-10T15:44:04.000Z</time></trkpt>
        <trkpt lat="29.2740996" lon="104.2893903"><ele>313.18</ele><time>2026-08-10T15:44:08.000Z</time></trkpt>
        <trkpt lat="29.2740082" lon="104.2892771"><ele>312.85</ele><time>2026-08-10T15:44:12.000Z</time></trkpt>
        <trkpt lat="29.2739168" lon="104.28917"><ele>312.3</ele><time>2026-08-10T15:44:16.000Z</time></trkpt>
        <trkpt lat="29.2737974" lon="104.2891616"><ele>311.15</ele><time>2026-08-10T15:44:20.000Z</time></trkpt>
        <trkpt lat="29.2736716" lon="104.2892295"><ele>309.98</ele><time>2026-08-10T15:44:24.000Z</time></trkpt>
        <trkpt lat="29.2735896" lon="104.2893731"><ele>308.29</ele><time>2026-08-10T15:44:28.000Z</time></trkpt>
        <trkpt lat="29.2734911" lon="104.2895047"><ele>307.37</ele><time>2026-08-10T15:44:32.000Z</time></trkpt>
        <trkpt lat="29.2733644" lon="104.2895756"><ele>306.09</ele><time>2026-08-10T15:44:36.000Z</time></trkpt>
        <trkpt lat="29.273244" lon="104.2895642"><ele>306.19</ele><time>2026-08-10T15:44:40.000Z</time></trkpt>
        <trkpt lat="29.2731238" lon="104.2894765"><ele>306.96</ele><time>2026-08-10T15:44:44.000Z</time></trkpt>
        <trkpt lat="29.2730206" lon="104.2893361"><ele>307.76</ele><time>2026-08-10T15:44:48.000Z</time></trkpt>
        <trkpt lat="29.2729288" lon="104.2891671"><ele>308.73</ele><time>2026-08-10T15:44:52.000Z</time></trkpt>
        <trkpt lat="29.2728239" lon="104.2890373"><ele>309.37</ele><time>2026-08-10T15:44:56.000Z</time></trkpt>
        <trkpt lat="29.2727108" lon="104.2889778"><ele>309.65</ele><time>2026-08-10T15:45:00.000Z</time></trkpt>
        <trkpt lat="29.2726155" lon="104.2889357"><ele>309.89</ele><time>2026-08-10T15:45:04.000Z</time></trkpt>
        <trkpt lat="29.2725826" lon="104.2889316"><ele>310.34</ele><time>2026-08-10T15:45:06.000Z</time></trkpt>
        <trkpt lat="29.2725843" lon="104.2888482"><ele>310.36</ele><time>2026-08-10T15:46:08.000Z</time></trkpt>
        <trkpt lat="29.2725445" lon="104.2887286"><ele>309.93</ele><time>2026-08-10T15:46:12.000Z</time></trkpt>
        <trkpt lat="29.2725461" lon="104.2885967"><ele>309.19</ele><time>2026-08-10T15:46:16.000Z</time></trkpt>
        <trkpt lat="29.2725724" lon="104.2884617"><ele>308.76</ele><time>2026-08-10T15:46:20.000Z</time></trkpt>
        <trkpt lat="29.2726034" lon="104.2883231"><ele>308.37</ele><time>2026-08-10T15:46:24.000Z</time></trkpt>
        <trkpt lat="29.2726132" lon="104.2881917"><ele>308.18</ele><time>2026-08-10T15:46:28.000Z</time></trkpt>
        <trkpt lat="29.2725702" lon="104.288076"><ele>307.73</ele><time>2026-08-10T15:46:32.000Z</time></trkpt>
        <trkpt lat="29.272501" lon="104.2879595"><ele>306.84</ele><time>2026-08-10T15:46:36.000Z</time></trkpt>
        <trkpt lat="29.2723941" lon="104.2878457"><ele>305.63</ele><time>2026-08-10T15:46:40.000Z</time></trkpt>
        <trkpt lat="29.2722858" lon="104.2877204"><ele>304.34</ele><time>2026-08-10T15:46:44.000Z</time></trkpt>
        <trkpt lat="29.2722132" lon="104.287555"><ele>303.15</ele><time>2026-08-10T15:46:48.000Z</time></trkpt>
        <trkpt lat="29.2721725" lon="104.287384"><ele>301.91</ele><time>2026-08-10T15:46:52.000Z</time></trkpt>
        <trkpt lat="29.2721365" lon="104.28721"><ele>300.53</ele><time>2026-08-10T15:46:56.000Z</time></trkpt>
        <trkpt lat="29.2721177" lon="104.2870484"><ele>299.67</ele><time>2026-08-10T15:47:00.000Z</time></trkpt>
        <trkpt lat="29.2721469" lon="104.2868865"><ele>297.82</ele><time>2026-08-10T15:47:04.000Z</time></trkpt>
        <trkpt lat="29.2722033" lon="104.2867298"><ele>295.98</ele><time>2026-08-10T15:47:08.000Z</time></trkpt>
        <trkpt lat="29.2722556" lon="104.28657"><ele>294.39</ele><time>2026-08-10T15:47:12.000Z</time></trkpt>
        <trkpt lat="29.2723147" lon="104.2864135"><ele>293.08</ele><time>2026-08-10T15:47:16.000Z</time></trkpt>
        <trkpt lat="29.2723673" lon="104.2862471"><ele>292.33</ele><time>2026-08-10T15:47:20.000Z</time></trkpt>
        <trkpt lat="29.2723912" lon="104.2860947"><ele>291.76</ele><time>2026-08-10T15:47:24.000Z</time></trkpt>
        <trkpt lat="29.2724139" lon="104.2859672"><ele>291.28</ele><time>2026-08-10T15:47:28.000Z</time></trkpt>
        <trkpt lat="29.2724278" lon="104.2858378"><ele>290.43</ele><time>2026-08-10T15:47:32.000Z</time></trkpt>
        <trkpt lat="29.2723883" lon="104.2857136"><ele>288.6</ele><time>2026-08-10T15:47:36.000Z</time></trkpt>
        <trkpt lat="29.2723062" lon="104.2856277"><ele>287.17</ele><time>2026-08-10T15:47:40.000Z</time></trkpt>
        <trkpt lat="29.2721913" lon="104.2856069"><ele>286.13</ele><time>2026-08-10T15:47:44.000Z</time></trkpt>
        <trkpt lat="29.2720642" lon="104.2856002"><ele>284.64</ele><time>2026-08-10T15:47:48.000Z</time></trkpt>
        <trkpt lat="29.2719925" lon="104.285598"><ele>283.5</ele><time>2026-08-10T15:47:54.000Z</time></trkpt>
        <trkpt lat="29.2720643" lon="104.2855288"><ele>283.09</ele><time>2026-08-10T15:49:14.000Z</time></trkpt>
        <trkpt lat="29.2720752" lon="104.2854245"><ele>282.24</ele><time>2026-08-10T15:49:30.000Z</time></trkpt>
        <trkpt lat="29.2720877" lon="104.28553"><ele>281.47</ele><time>2026-08-10T15:51:18.000Z</time></trkpt>
        <trkpt lat="29.2720709" lon="104.2856352"><ele>280.17</ele><time>2026-08-10T15:52:16.000Z</time></trkpt>
        <trkpt lat="29.2721878" lon="104.2855705"><ele>281.4</ele><time>2026-08-10T15:59:06.000Z</time></trkpt>
        <trkpt lat="29.2722996" lon="104.2855383"><ele>282.04</ele><time>2026-08-10T15:59:10.000Z</time></trkpt>
        <trkpt lat="29.2724488" lon="104.2855682"><ele>282.5</ele><time>2026-08-10T15:59:14.000Z</time></trkpt>
        <trkpt lat="29.2725545" lon="104.2855995"><ele>282.27</ele><time>2026-08-10T15:59:16.000Z</time></trkpt>
        <trkpt lat="29.2726453" lon="104.2856248"><ele>281.94</ele><time>2026-08-10T15:59:18.000Z</time></trkpt>
        <trkpt lat="29.2727648" lon="104.2856454"><ele>282.15</ele><time>2026-08-10T15:59:22.000Z</time></trkpt>
        <trkpt lat="29.2728734" lon="104.2856242"><ele>281.57</ele><time>2026-08-10T15:59:26.000Z</time></trkpt>
        <trkpt lat="29.2729697" lon="104.2856159"><ele>280.83</ele><time>2026-08-10T15:59:30.000Z</time></trkpt>
        <trkpt lat="29.2730613" lon="104.2856491"><ele>279.86</ele><time>2026-08-10T15:59:34.000Z</time></trkpt>
        <trkpt lat="29.2731575" lon="104.2857057"><ele>280.1</ele><time>2026-08-10T15:59:38.000Z</time></trkpt>
        <trkpt lat="29.273257" lon="104.2857495"><ele>280.74</ele><time>2026-08-10T15:59:42.000Z</time></trkpt>
        <trkpt lat="29.2733785" lon="104.2857269"><ele>282.18</ele><time>2026-08-10T15:59:48.000Z</time></trkpt>
        <trkpt lat="29.2734623" lon="104.2856624"><ele>281.78</ele><time>2026-08-10T15:59:50.000Z</time></trkpt>
        <trkpt lat="29.2735645" lon="104.2855695"><ele>281.9</ele><time>2026-08-10T15:59:54.000Z</time></trkpt>
        <trkpt lat="29.273661" lon="104.2855041"><ele>281.67</ele><time>2026-08-10T15:59:58.000Z</time></trkpt>
        <trkpt lat="29.2737524" lon="104.2854703"><ele>281.48</ele><time>2026-08-10T16:00:02.000Z</time></trkpt>
        <trkpt lat="29.2738627" lon="104.2854662"><ele>281.49</ele><time>2026-08-10T16:00:06.000Z</time></trkpt>
        <trkpt lat="29.2739735" lon="104.285492"><ele>282.54</ele><time>2026-08-10T16:00:10.000Z</time></trkpt>
        <trkpt lat="29.2740834" lon="104.2855443"><ele>283.18</ele><time>2026-08-10T16:00:14.000Z</time></trkpt>
        <trkpt lat="29.2741942" lon="104.2856334"><ele>283.9</ele><time>2026-08-10T16:00:18.000Z</time></trkpt>
        <trkpt lat="29.2742822" lon="104.28576"><ele>284.61</ele><time>2026-08-10T16:00:22.000Z</time></trkpt>
        <trkpt lat="29.2743687" lon="104.2858541"><ele>284.88</ele><time>2026-08-10T16:00:26.000Z</time></trkpt>
        <trkpt lat="29.2744198" lon="104.2859044"><ele>285.5</ele><time>2026-08-10T16:00:34.000Z</time></trkpt>
        <trkpt lat="29.2742848" lon="104.2857957"><ele>286.59</ele><time>2026-08-10T16:01:54.000Z</time></trkpt>
        <trkpt lat="29.2741755" lon="104.2855275"><ele>288.44</ele><time>2026-08-10T16:01:58.000Z</time></trkpt>
        <trkpt lat="29.2740862" lon="104.2854215"><ele>290.67</ele><time>2026-08-10T16:02:04.000Z</time></trkpt>
        <trkpt lat="29.2739055" lon="104.2852828"><ele>290.95</ele><time>2026-08-10T16:02:08.000Z</time></trkpt>
        <trkpt lat="29.2737681" lon="104.2852642"><ele>291.94</ele><time>2026-08-10T16:02:14.000Z</time></trkpt>
        <trkpt lat="29.2736773" lon="104.2852314"><ele>292.72</ele><time>2026-08-10T16:02:18.000Z</time></trkpt>
        <trkpt lat="29.2735825" lon="104.2851951"><ele>292.17</ele><time>2026-08-10T16:02:22.000Z</time></trkpt>
        <trkpt lat="29.2734883" lon="104.2851852"><ele>291.3</ele><time>2026-08-10T16:02:26.000Z</time></trkpt>
        <trkpt lat="29.2733777" lon="104.2851919"><ele>290.54</ele><time>2026-08-10T16:02:30.000Z</time></trkpt>
        <trkpt lat="29.2732624" lon="104.2851402"><ele>290.11</ele><time>2026-08-10T16:02:34.000Z</time></trkpt>
        <trkpt lat="29.2731548" lon="104.285096"><ele>289.18</ele><time>2026-08-10T16:02:38.000Z</time></trkpt>
        <trkpt lat="29.2731742" lon="104.2848821"><ele>288.62</ele><time>2026-08-10T16:02:44.000Z</time></trkpt>
        <trkpt lat="29.2732486" lon="104.2847315"><ele>288.77</ele><time>2026-08-10T16:02:50.000Z</time></trkpt>
        <trkpt lat="29.2733445" lon="104.2846285"><ele>289.42</ele><time>2026-08-10T16:02:54.000Z</time></trkpt>
        <trkpt lat="29.273445" lon="104.2845478"><ele>289.97</ele><time>2026-08-10T16:02:58.000Z</time></trkpt>
        <trkpt lat="29.2735686" lon="104.2845243"><ele>290.51</ele><time>2026-08-10T16:03:02.000Z</time></trkpt>
        <trkpt lat="29.2736832" lon="104.2844798"><ele>290.97</ele><time>2026-08-10T16:03:06.000Z</time></trkpt>
        <trkpt lat="29.27386" lon="104.2844908"><ele>291.1</ele><time>2026-08-10T16:03:08.000Z</time></trkpt>
        <trkpt lat="29.2739658" lon="104.2843753"><ele>291.34</ele><time>2026-08-10T16:03:14.000Z</time></trkpt>
        <trkpt lat="29.2741841" lon="104.2842397"><ele>291.49</ele><time>2026-08-10T16:03:18.000Z</time></trkpt>
        <trkpt lat="29.2742561" lon="104.2841131"><ele>291.79</ele><time>2026-08-10T16:03:24.000Z</time></trkpt>
        <trkpt lat="29.2742491" lon="104.284001"><ele>292.24</ele><time>2026-08-10T16:03:32.000Z</time></trkpt>
        <trkpt lat="29.27429" lon="104.2839397"><ele>293.1</ele><time>2026-08-10T16:03:38.000Z</time></trkpt>
        <trkpt lat="29.274525" lon="104.2841172"><ele>293.06</ele><time>2026-08-10T16:03:42.000Z</time></trkpt>
        <trkpt lat="29.2747005" lon="104.2841862"><ele>294.51</ele><time>2026-08-10T16:03:46.000Z</time></trkpt>
        <trkpt lat="29.2748127" lon="104.2841703"><ele>295.78</ele><time>2026-08-10T16:03:50.000Z</time></trkpt>
        <trkpt lat="29.2749185" lon="104.2842056"><ele>296.95</ele><time>2026-08-10T16:03:54.000Z</time></trkpt>
        <trkpt lat="29.2750405" lon="104.2842396"><ele>298.96</ele><time>2026-08-10T16:03:58.000Z</time></trkpt>
        <trkpt lat="29.2751465" lon="104.2842477"><ele>300.43</ele><time>2026-08-10T16:04:02.000Z</time></trkpt>
        <trkpt lat="29.2752574" lon="104.2842343"><ele>301.92</ele><time>2026-08-10T16:04:08.000Z</time></trkpt>
        <trkpt lat="29.2753139" lon="104.2841531"><ele>303.98</ele><time>2026-08-10T16:04:12.000Z</time></trkpt>
        <trkpt lat="29.275312" lon="104.2840354"><ele>305.84</ele><time>2026-08-10T16:04:14.000Z</time></trkpt>
        <trkpt lat="29.2752758" lon="104.2838585"><ele>308.29</ele><time>2026-08-10T16:04:18.000Z</time></trkpt>
        <trkpt lat="29.2752754" lon="104.2836701"><ele>309</ele><time>2026-08-10T16:04:22.000Z</time></trkpt>
        <trkpt lat="29.2753624" lon="104.2835439"><ele>310.21</ele><time>2026-08-10T16:04:28.000Z</time></trkpt>
        <trkpt lat="29.2754549" lon="104.2834646"><ele>311.28</ele><time>2026-08-10T16:04:32.000Z</time></trkpt>
        <trkpt lat="29.275568" lon="104.2834165"><ele>312.88</ele><time>2026-08-10T16:04:36.000Z</time></trkpt>
        <trkpt lat="29.2756924" lon="104.2834192"><ele>313.5</ele><time>2026-08-10T16:04:40.000Z</time></trkpt>
        <trkpt lat="29.2758155" lon="104.2833966"><ele>314.21</ele><time>2026-08-10T16:04:44.000Z</time></trkpt>
        <trkpt lat="29.2759316" lon="104.2833247"><ele>314.21</ele><time>2026-08-10T16:04:48.000Z</time></trkpt>
        <trkpt lat="29.2760741" lon="104.2832604"><ele>314.43</ele><time>2026-08-10T16:04:50.000Z</time></trkpt>
        <trkpt lat="29.2761808" lon="104.2832103"><ele>314.72</ele><time>2026-08-10T16:04:52.000Z</time></trkpt>
        <trkpt lat="29.276263" lon="104.2831548"><ele>314.83</ele><time>2026-08-10T16:04:54.000Z</time></trkpt>
        <trkpt lat="29.2763381" lon="104.2830946"><ele>314.91</ele><time>2026-08-10T16:04:56.000Z</time></trkpt>
        <trkpt lat="29.2764123" lon="104.2830365"><ele>315.04</ele><time>2026-08-10T16:04:58.000Z</time></trkpt>
        <trkpt lat="29.27655" lon="104.2830544"><ele>315.13</ele><time>2026-08-10T16:05:02.000Z</time></trkpt>
        <trkpt lat="29.2766516" lon="104.2829882"><ele>314.59</ele><time>2026-08-10T16:05:06.000Z</time></trkpt>
        <trkpt lat="29.2767835" lon="104.2829269"><ele>314.17</ele><time>2026-08-10T16:05:10.000Z</time></trkpt>
        <trkpt lat="29.2821779" lon="104.2827127"><ele>313.92</ele><time>2026-08-10T16:07:57.000Z</time></trkpt>
        <trkpt lat="29.2821584" lon="104.2826623"><ele>309.1</ele><time>2026-08-10T16:07:59.000Z</time></trkpt>
        <trkpt lat="29.2822481" lon="104.2826417"><ele>303.48</ele><time>2026-08-10T16:08:07.000Z</time></trkpt>
        <trkpt lat="29.2822934" lon="104.2826417"><ele>298.58</ele><time>2026-08-10T16:08:11.000Z</time></trkpt>
        <trkpt lat="29.282193" lon="104.2826756"><ele>295.89</ele><time>2026-08-10T16:10:55.000Z</time></trkpt>
        <trkpt lat="29.2822877" lon="104.2826737"><ele>294.8</ele><time>2026-08-10T16:19:49.000Z</time></trkpt>
        <trkpt lat="29.2824149" lon="104.2827114"><ele>294.26</ele><time>2026-08-10T16:21:47.000Z</time></trkpt>
        <trkpt lat="29.2825807" lon="104.2827562"><ele>293.74</ele><time>2026-08-10T16:21:51.000Z</time></trkpt>
        <trkpt lat="29.2827388" lon="104.2828075"><ele>293.28</ele><time>2026-08-10T16:21:55.000Z</time></trkpt>
        <trkpt lat="29.282873" lon="104.2828908"><ele>293.79</ele><time>2026-08-10T16:21:59.000Z</time></trkpt>
        <trkpt lat="29.2829878" lon="104.2829821"><ele>295.1</ele><time>2026-08-10T16:22:03.000Z</time></trkpt>
        <trkpt lat="29.2830805" lon="104.2830603"><ele>296.38</ele><time>2026-08-10T16:22:07.000Z</time></trkpt>
        <trkpt lat="29.2831231" lon="104.2831137"><ele>297.52</ele><time>2026-08-10T16:22:11.000Z</time></trkpt>
        <trkpt lat="29.2831433" lon="104.2832"><ele>298.59</ele><time>2026-08-10T16:25:31.000Z</time></trkpt>
        <trkpt lat="29.283186" lon="104.2833027"><ele>298.12</ele><time>2026-08-10T16:25:41.000Z</time></trkpt>
        <trkpt lat="29.2831408" lon="104.2831937"><ele>298.2</ele><time>2026-08-10T16:26:59.000Z</time></trkpt>
        <trkpt lat="29.2831738" lon="104.2832984"><ele>298.35</ele><time>2026-08-10T16:28:49.000Z</time></trkpt>
        <trkpt lat="29.2831483" lon="104.2832721"><ele>298.1</ele><time>2026-08-10T16:28:53.000Z</time></trkpt>
        <trkpt lat="29.2832309" lon="104.2833517"><ele>298</ele><time>2026-08-10T16:29:13.000Z</time></trkpt>
        <trkpt lat="29.2833162" lon="104.2834112"><ele>299.23</ele><time>2026-08-10T16:29:15.000Z</time></trkpt>
        <trkpt lat="29.2834668" lon="104.2834911"><ele>300.48</ele><time>2026-08-10T16:29:19.000Z</time></trkpt>
        <trkpt lat="29.2835716" lon="104.2835597"><ele>301.7</ele><time>2026-08-10T16:29:21.000Z</time></trkpt>
        <trkpt lat="29.2836843" lon="104.2836873"><ele>302.66</ele><time>2026-08-10T16:29:25.000Z</time></trkpt>
        <trkpt lat="29.2837871" lon="104.2838314"><ele>304.04</ele><time>2026-08-10T16:29:29.000Z</time></trkpt>
        <trkpt lat="29.2838726" lon="104.2839605"><ele>305.42</ele><time>2026-08-10T16:29:33.000Z</time></trkpt>
        <trkpt lat="29.2839674" lon="104.2840839"><ele>306.22</ele><time>2026-08-10T16:29:37.000Z</time></trkpt>
        <trkpt lat="29.2841182" lon="104.2841867"><ele>306.9</ele><time>2026-08-10T16:29:41.000Z</time></trkpt>
        <trkpt lat="29.2842387" lon="104.2842127"><ele>307.61</ele><time>2026-08-10T16:29:43.000Z</time></trkpt>
        <trkpt lat="29.2843403" lon="104.2841979"><ele>308.25</ele><time>2026-08-10T16:29:45.000Z</time></trkpt>
        <trkpt lat="29.2844241" lon="104.2841663"><ele>308.89</ele><time>2026-08-10T16:29:49.000Z</time></trkpt>
        <trkpt lat="29.2844988" lon="104.2841053"><ele>309.78</ele><time>2026-08-10T16:30:17.000Z</time></trkpt>
        <trkpt lat="29.284414" lon="104.2841381"><ele>310.75</ele><time>2026-08-10T16:39:45.000Z</time></trkpt>
        <trkpt lat="29.284548" lon="104.284132"><ele>310.75</ele><time>2026-08-10T16:40:25.000Z</time></trkpt>
        <trkpt lat="29.2846503" lon="104.2841725"><ele>311.45</ele><time>2026-08-10T16:40:27.000Z</time></trkpt>
        <trkpt lat="29.2847494" lon="104.284217"><ele>311.97</ele><time>2026-08-10T16:40:29.000Z</time></trkpt>
        <trkpt lat="29.2848445" lon="104.2842666"><ele>312.47</ele><time>2026-08-10T16:40:31.000Z</time></trkpt>
        <trkpt lat="29.2849291" lon="104.2843276"><ele>312.92</ele><time>2026-08-10T16:40:33.000Z</time></trkpt>
        <trkpt lat="29.2849948" lon="104.2844127"><ele>313.29</ele><time>2026-08-10T16:40:35.000Z</time></trkpt>
        <trkpt lat="29.2850356" lon="104.2845252"><ele>313.47</ele><time>2026-08-10T16:40:37.000Z</time></trkpt>
        <trkpt lat="29.285051" lon="104.2846485"><ele>313.47</ele><time>2026-08-10T16:40:39.000Z</time></trkpt>
        <trkpt lat="29.2850356" lon="104.2847681"><ele>313.19</ele><time>2026-08-10T16:40:41.000Z</time></trkpt>
        <trkpt lat="29.2849937" lon="104.2848821"><ele>312.9</ele><time>2026-08-10T16:40:43.000Z</time></trkpt>
        <trkpt lat="29.2849422" lon="104.2849982"><ele>312.62</ele><time>2026-08-10T16:40:45.000Z</time></trkpt>
        <trkpt lat="29.2848918" lon="104.2851238"><ele>312.16</ele><time>2026-08-10T16:40:47.000Z</time></trkpt>
        <trkpt lat="29.2848432" lon="104.285259"><ele>311.72</ele><time>2026-08-10T16:40:49.000Z</time></trkpt>
        <trkpt lat="29.2848" lon="104.2854023"><ele>310.79</ele><time>2026-08-10T16:40:51.000Z</time></trkpt>
        <trkpt lat="29.2847545" lon="104.2855466"><ele>309.91</ele><time>2026-08-10T16:40:53.000Z</time></trkpt>
        <trkpt lat="29.2846943" lon="104.2856754"><ele>309.3</ele><time>2026-08-10T16:40:55.000Z</time></trkpt>
        <trkpt lat="29.284644" lon="104.2857946"><ele>309.04</ele><time>2026-08-10T16:40:57.000Z</time></trkpt>
        <trkpt lat="29.2846267" lon="104.2859143"><ele>308.94</ele><time>2026-08-10T16:40:59.000Z</time></trkpt>
        <trkpt lat="29.2846502" lon="104.2860351"><ele>308.54</ele><time>2026-08-10T16:41:01.000Z</time></trkpt>
        <trkpt lat="29.2846986" lon="104.2861498"><ele>307.98</ele><time>2026-08-10T16:41:03.000Z</time></trkpt>
        <trkpt lat="29.2847466" lon="104.2862751"><ele>306.84</ele><time>2026-08-10T16:41:05.000Z</time></trkpt>
        <trkpt lat="29.2847805" lon="104.2864233"><ele>305.24</ele><time>2026-08-10T16:41:07.000Z</time></trkpt>
        <trkpt lat="29.2848095" lon="104.2865888"><ele>303.49</ele><time>2026-08-10T16:41:09.000Z</time></trkpt>
        <trkpt lat="29.2848386" lon="104.2867584"><ele>302.17</ele><time>2026-08-10T16:41:11.000Z</time></trkpt>
        <trkpt lat="29.2848702" lon="104.2869258"><ele>301.22</ele><time>2026-08-10T16:41:13.000Z</time></trkpt>
        <trkpt lat="29.2849114" lon="104.2870789"><ele>300.62</ele><time>2026-08-10T16:41:15.000Z</time></trkpt>
        <trkpt lat="29.2849463" lon="104.2872287"><ele>300.33</ele><time>2026-08-10T16:41:17.000Z</time></trkpt>
        <trkpt lat="29.2849599" lon="104.2873858"><ele>300.31</ele><time>2026-08-10T16:41:19.000Z</time></trkpt>
        <trkpt lat="29.2849439" lon="104.2875487"><ele>300.51</ele><time>2026-08-10T16:41:21.000Z</time></trkpt>
        <trkpt lat="29.2849103" lon="104.2876984"><ele>301.02</ele><time>2026-08-10T16:41:23.000Z</time></trkpt>
        <trkpt lat="29.2848548" lon="104.2878177"><ele>301.97</ele><time>2026-08-10T16:41:25.000Z</time></trkpt>
        <trkpt lat="29.2847633" lon="104.2878931"><ele>302.87</ele><time>2026-08-10T16:41:27.000Z</time></trkpt>
        <trkpt lat="29.2846529" lon="104.2879225"><ele>303.8</ele><time>2026-08-10T16:41:29.000Z</time></trkpt>
        <trkpt lat="29.2845412" lon="104.2878979"><ele>304.85</ele><time>2026-08-10T16:41:31.000Z</time></trkpt>
        <trkpt lat="29.2844286" lon="104.2878571"><ele>306</ele><time>2026-08-10T16:41:33.000Z</time></trkpt>
        <trkpt lat="29.2843154" lon="104.2878104"><ele>307.02</ele><time>2026-08-10T16:41:35.000Z</time></trkpt>
        <trkpt lat="29.2842037" lon="104.2877615"><ele>307.61</ele><time>2026-08-10T16:41:37.000Z</time></trkpt>
        <trkpt lat="29.2840898" lon="104.2877256"><ele>307.59</ele><time>2026-08-10T16:41:39.000Z</time></trkpt>
        <trkpt lat="29.2839667" lon="104.287737"><ele>307.19</ele><time>2026-08-10T16:41:41.000Z</time></trkpt>
        <trkpt lat="29.2838536" lon="104.2877975"><ele>306.62</ele><time>2026-08-10T16:41:43.000Z</time></trkpt>
        <trkpt lat="29.2837396" lon="104.2878563"><ele>306.04</ele><time>2026-08-10T16:41:45.000Z</time></trkpt>
        <trkpt lat="29.2836161" lon="104.2878897"><ele>305.58</ele><time>2026-08-10T16:41:47.000Z</time></trkpt>
        <trkpt lat="29.2834958" lon="104.287912"><ele>305.09</ele><time>2026-08-10T16:41:49.000Z</time></trkpt>
        <trkpt lat="29.2833867" lon="104.2879717"><ele>304.67</ele><time>2026-08-10T16:41:51.000Z</time></trkpt>
        <trkpt lat="29.2833012" lon="104.288072"><ele>304.13</ele><time>2026-08-10T16:41:53.000Z</time></trkpt>
        <trkpt lat="29.2832179" lon="104.2881893"><ele>303.38</ele><time>2026-08-10T16:41:55.000Z</time></trkpt>
        <trkpt lat="29.2831516" lon="104.2883201"><ele>302.49</ele><time>2026-08-10T16:41:57.000Z</time></trkpt>
        <trkpt lat="29.2831185" lon="104.2884581"><ele>301.6</ele><time>2026-08-10T16:41:59.000Z</time></trkpt>
        <trkpt lat="29.2830892" lon="104.2886049"><ele>301.01</ele><time>2026-08-10T16:42:01.000Z</time></trkpt>
        <trkpt lat="29.2830692" lon="104.2887539"><ele>301.21</ele><time>2026-08-10T16:42:03.000Z</time></trkpt>
        <trkpt lat="29.2830558" lon="104.2889127"><ele>301.69</ele><time>2026-08-10T16:42:05.000Z</time></trkpt>
        <trkpt lat="29.2830559" lon="104.2890783"><ele>302.26</ele><time>2026-08-10T16:42:07.000Z</time></trkpt>
        <trkpt lat="29.2830701" lon="104.2892471"><ele>302.69</ele><time>2026-08-10T16:42:09.000Z</time></trkpt>
        <trkpt lat="29.2830877" lon="104.2894163"><ele>303.09</ele><time>2026-08-10T16:42:11.000Z</time></trkpt>
        <trkpt lat="29.2830932" lon="104.2895837"><ele>303.35</ele><time>2026-08-10T16:42:13.000Z</time></trkpt>
        <trkpt lat="29.2830788" lon="104.2897365"><ele>303.93</ele><time>2026-08-10T16:42:15.000Z</time></trkpt>
        <trkpt lat="29.283047" lon="104.2898908"><ele>304.71</ele><time>2026-08-10T16:42:17.000Z</time></trkpt>
        <trkpt lat="29.2829982" lon="104.2900479"><ele>305.17</ele><time>2026-08-10T16:42:19.000Z</time></trkpt>
        <trkpt lat="29.282943" lon="104.2901941"><ele>305.68</ele><time>2026-08-10T16:42:21.000Z</time></trkpt>
        <trkpt lat="29.282901" lon="104.290328"><ele>306.61</ele><time>2026-08-10T16:42:23.000Z</time></trkpt>
        <trkpt lat="29.2828714" lon="104.290447"><ele>307.77</ele><time>2026-08-10T16:42:25.000Z</time></trkpt>
        <trkpt lat="29.2828446" lon="104.2905566"><ele>308.75</ele><time>2026-08-10T16:42:27.000Z</time></trkpt>
        <trkpt lat="29.2828096" lon="104.2906741"><ele>308.86</ele><time>2026-08-10T16:42:29.000Z</time></trkpt>
        <trkpt lat="29.282753" lon="104.2908035"><ele>308.15</ele><time>2026-08-10T16:42:31.000Z</time></trkpt>
        <trkpt lat="29.2826862" lon="104.2909446"><ele>306.74</ele><time>2026-08-10T16:42:33.000Z</time></trkpt>
        <trkpt lat="29.2826287" lon="104.2910924"><ele>305.42</ele><time>2026-08-10T16:42:35.000Z</time></trkpt>
        <trkpt lat="29.282592" lon="104.2912426"><ele>304.4</ele><time>2026-08-10T16:42:37.000Z</time></trkpt>
        <trkpt lat="29.2825793" lon="104.2913846"><ele>303.79</ele><time>2026-08-10T16:42:39.000Z</time></trkpt>
        <trkpt lat="29.2826014" lon="104.2915137"><ele>303.51</ele><time>2026-08-10T16:42:41.000Z</time></trkpt>
        <trkpt lat="29.2826516" lon="104.2916196"><ele>303.37</ele><time>2026-08-10T16:42:43.000Z</time></trkpt>
        <trkpt lat="29.2827138" lon="104.2917113"><ele>303.4</ele><time>2026-08-10T16:42:45.000Z</time></trkpt>
        <trkpt lat="29.2827784" lon="104.291806"><ele>303.23</ele><time>2026-08-10T16:42:49.000Z</time></trkpt>
        <trkpt lat="29.2828373" lon="104.2919187"><ele>303</ele><time>2026-08-10T16:44:03.000Z</time></trkpt>
        <trkpt lat="29.282882" lon="104.2920402"><ele>301.8</ele><time>2026-08-10T16:44:07.000Z</time></trkpt>
        <trkpt lat="29.2828949" lon="104.2921908"><ele>300</ele><time>2026-08-10T16:44:11.000Z</time></trkpt>
        <trkpt lat="29.2828361" lon="104.2923681"><ele>297.87</ele><time>2026-08-10T16:44:15.000Z</time></trkpt>
        <trkpt lat="29.2827307" lon="104.2924695"><ele>296.37</ele><time>2026-08-10T16:44:19.000Z</time></trkpt>
        <trkpt lat="29.2825863" lon="104.2924479"><ele>295.78</ele><time>2026-08-10T16:44:23.000Z</time></trkpt>
        <trkpt lat="29.2824267" lon="104.2924404"><ele>295.75</ele><time>2026-08-10T16:44:27.000Z</time></trkpt>
        <trkpt lat="29.2822587" lon="104.292393"><ele>295.92</ele><time>2026-08-10T16:44:31.000Z</time></trkpt>
        <trkpt lat="29.2820981" lon="104.2923138"><ele>295.91</ele><time>2026-08-10T16:44:35.000Z</time></trkpt>
        <trkpt lat="29.282004" lon="104.292195"><ele>296.54</ele><time>2026-08-10T16:44:39.000Z</time></trkpt>
        <trkpt lat="29.2819227" lon="104.2920608"><ele>297.76</ele><time>2026-08-10T16:44:43.000Z</time></trkpt>
        <trkpt lat="29.2817898" lon="104.2919837"><ele>299</ele><time>2026-08-10T16:44:47.000Z</time></trkpt>
        <trkpt lat="29.2816305" lon="104.2919526"><ele>299.51</ele><time>2026-08-10T16:44:51.000Z</time></trkpt>
        <trkpt lat="29.2814757" lon="104.2919522"><ele>299.48</ele><time>2026-08-10T16:44:55.000Z</time></trkpt>
        <trkpt lat="29.2813431" lon="104.2919192"><ele>298.89</ele><time>2026-08-10T16:44:59.000Z</time></trkpt>
        <trkpt lat="29.2812396" lon="104.2918119"><ele>298.1</ele><time>2026-08-10T16:45:03.000Z</time></trkpt>
        <trkpt lat="29.2811245" lon="104.2916702"><ele>297.57</ele><time>2026-08-10T16:45:07.000Z</time></trkpt>
        <trkpt lat="29.2809776" lon="104.2915545"><ele>297.35</ele><time>2026-08-10T16:45:11.000Z</time></trkpt>
        <trkpt lat="29.2808285" lon="104.2914843"><ele>297.14</ele><time>2026-08-10T16:45:15.000Z</time></trkpt>
        <trkpt lat="29.2807" lon="104.2914758"><ele>296.32</ele><time>2026-08-10T16:45:19.000Z</time></trkpt>
        <trkpt lat="29.2805895" lon="104.2915052"><ele>295.63</ele><time>2026-08-10T16:45:23.000Z</time></trkpt>
        <trkpt lat="29.2805156" lon="104.2916154"><ele>295.19</ele><time>2026-08-10T16:45:27.000Z</time></trkpt>
        <trkpt lat="29.2804844" lon="104.2917324"><ele>294.45</ele><time>2026-08-10T16:45:31.000Z</time></trkpt>
        <trkpt lat="29.2804838" lon="104.2917729"><ele>293.77</ele><time>2026-08-10T16:45:35.000Z</time></trkpt>
        <trkpt lat="29.2804981" lon="104.2918819"><ele>293.29</ele><time>2026-08-10T16:48:47.000Z</time></trkpt>
        <trkpt lat="29.2805019" lon="104.2918988"><ele>294.03</ele><time>2026-08-10T16:48:49.000Z</time></trkpt>
        <trkpt lat="29.2805126" lon="104.2917535"><ele>294.82</ele><time>2026-08-10T16:50:27.000Z</time></trkpt>
        <trkpt lat="29.2805483" lon="104.2916081"><ele>294.5</ele><time>2026-08-10T16:50:33.000Z</time></trkpt>
        <trkpt lat="29.2806068" lon="104.2915029"><ele>294.96</ele><time>2026-08-10T16:50:37.000Z</time></trkpt>
        <trkpt lat="29.2806977" lon="104.2914671"><ele>295.66</ele><time>2026-08-10T16:50:43.000Z</time></trkpt>
        <trkpt lat="29.2808086" lon="104.2914674"><ele>295.92</ele><time>2026-08-10T16:50:49.000Z</time></trkpt>
        <trkpt lat="29.2809211" lon="104.2915124"><ele>296.15</ele><time>2026-08-10T16:50:55.000Z</time></trkpt>
        <trkpt lat="29.2810404" lon="104.2915698"><ele>297.21</ele><time>2026-08-10T16:51:01.000Z</time></trkpt>
        <trkpt lat="29.2811396" lon="104.2916415"><ele>297.81</ele><time>2026-08-10T16:51:07.000Z</time></trkpt>
        <trkpt lat="29.281251" lon="104.2917396"><ele>297.23</ele><time>2026-08-10T16:51:13.000Z</time></trkpt>
        <trkpt lat="29.2813312" lon="104.2918432"><ele>297.23</ele><time>2026-08-10T16:51:17.000Z</time></trkpt>
        <trkpt lat="29.2813871" lon="104.291947"><ele>297.54</ele><time>2026-08-10T16:51:21.000Z</time></trkpt>
        <trkpt lat="29.2814707" lon="104.2920024"><ele>297.89</ele><time>2026-08-10T16:51:25.000Z</time></trkpt>
        <trkpt lat="29.2816023" lon="104.2919976"><ele>297.98</ele><time>2026-08-10T16:51:31.000Z</time></trkpt>
        <trkpt lat="29.2817131" lon="104.2919882"><ele>299.55</ele><time>2026-08-10T16:51:35.000Z</time></trkpt>
        <trkpt lat="29.2818099" lon="104.2919918"><ele>301.89</ele><time>2026-08-10T16:51:39.000Z</time></trkpt>
        <trkpt lat="29.2819208" lon="104.2920271"><ele>303.17</ele><time>2026-08-10T16:51:45.000Z</time></trkpt>
        <trkpt lat="29.2819987" lon="104.2921016"><ele>303.81</ele><time>2026-08-10T16:51:49.000Z</time></trkpt>
        <trkpt lat="29.2820486" lon="104.2921958"><ele>302.49</ele><time>2026-08-10T16:51:53.000Z</time></trkpt>
        <trkpt lat="29.2821158" lon="104.2923051"><ele>300.61</ele><time>2026-08-10T16:51:59.000Z</time></trkpt>
        <trkpt lat="29.2822111" lon="104.2923769"><ele>298.9</ele><time>2026-08-10T16:52:05.000Z</time></trkpt>
        <trkpt lat="29.2823266" lon="104.2924237"><ele>297.58</ele><time>2026-08-10T16:52:11.000Z</time></trkpt>
        <trkpt lat="29.2824392" lon="104.2924471"><ele>297.04</ele><time>2026-08-10T16:52:17.000Z</time></trkpt>
        <trkpt lat="29.2825464" lon="104.2924255"><ele>296.83</ele><time>2026-08-10T16:52:23.000Z</time></trkpt>
        <trkpt lat="29.2826432" lon="104.2924392"><ele>296.87</ele><time>2026-08-10T16:52:29.000Z</time></trkpt>
        <trkpt lat="29.2827434" lon="104.2924681"><ele>296.92</ele><time>2026-08-10T16:52:35.000Z</time></trkpt>
        <trkpt lat="29.282823" lon="104.2924025"><ele>296.96</ele><time>2026-08-10T16:52:41.000Z</time></trkpt>
        <trkpt lat="29.2828688" lon="104.2923029"><ele>296.93</ele><time>2026-08-10T16:52:45.000Z</time></trkpt>
        <trkpt lat="29.2828978" lon="104.2921842"><ele>297.08</ele><time>2026-08-10T16:52:49.000Z</time></trkpt>
        <trkpt lat="29.2828965" lon="104.2920585"><ele>297.31</ele><time>2026-08-10T16:52:55.000Z</time></trkpt>
        <trkpt lat="29.2828543" lon="104.2919405"><ele>297.57</ele><time>2026-08-10T16:53:03.000Z</time></trkpt>
        <trkpt lat="29.2828106" lon="104.2917875"><ele>298.1</ele><time>2026-08-10T16:53:09.000Z</time></trkpt>
        <trkpt lat="29.2827561" lon="104.2916787"><ele>298.66</ele><time>2026-08-10T16:53:11.000Z</time></trkpt>
        <trkpt lat="29.2827002" lon="104.2915843"><ele>299.13</ele><time>2026-08-10T16:53:13.000Z</time></trkpt>
        <trkpt lat="29.2826271" lon="104.2914421"><ele>299.3</ele><time>2026-08-10T16:53:17.000Z</time></trkpt>
        <trkpt lat="29.2826053" lon="104.291269"><ele>299.01</ele><time>2026-08-10T16:53:21.000Z</time></trkpt>
        <trkpt lat="29.2826196" lon="104.2911385"><ele>299.15</ele><time>2026-08-10T16:53:23.000Z</time></trkpt>
        <trkpt lat="29.2826523" lon="104.2910236"><ele>299.53</ele><time>2026-08-10T16:53:25.000Z</time></trkpt>
        <trkpt lat="29.2827016" lon="104.2909014"><ele>299.68</ele><time>2026-08-10T16:53:27.000Z</time></trkpt>
        <trkpt lat="29.2827641" lon="104.290789"><ele>299.96</ele><time>2026-08-10T16:53:29.000Z</time></trkpt>
        <trkpt lat="29.2828276" lon="104.2906692"><ele>300.25</ele><time>2026-08-10T16:53:31.000Z</time></trkpt>
        <trkpt lat="29.2828701" lon="104.2905237"><ele>300.51</ele><time>2026-08-10T16:53:35.000Z</time></trkpt>
        <trkpt lat="29.2828742" lon="104.2903637"><ele>301.21</ele><time>2026-08-10T16:53:39.000Z</time></trkpt>
        <trkpt lat="29.2828463" lon="104.2902057"><ele>301.9</ele><time>2026-08-10T16:53:43.000Z</time></trkpt>
        <trkpt lat="29.2827753" lon="104.2900722"><ele>302.03</ele><time>2026-08-10T16:53:47.000Z</time></trkpt>
        <trkpt lat="29.2827129" lon="104.2899374"><ele>303.74</ele><time>2026-08-10T16:53:51.000Z</time></trkpt>
        <trkpt lat="29.2826692" lon="104.2898306"><ele>305.94</ele><time>2026-08-10T16:53:53.000Z</time></trkpt>
        <trkpt lat="29.2825747" lon="104.2896673"><ele>307.62</ele><time>2026-08-10T16:53:57.000Z</time></trkpt>
        <trkpt lat="29.2824263" lon="104.2895969"><ele>308.33</ele><time>2026-08-10T16:54:01.000Z</time></trkpt>
        <trkpt lat="29.2823334" lon="104.2896466"><ele>310</ele><time>2026-08-10T16:54:03.000Z</time></trkpt>
        <trkpt lat="29.2822829" lon="104.2897591"><ele>311.41</ele><time>2026-08-10T16:54:05.000Z</time></trkpt>
        <trkpt lat="29.2822475" lon="104.2898927"><ele>312.24</ele><time>2026-08-10T16:54:07.000Z</time></trkpt>
        <trkpt lat="29.2821974" lon="104.2900313"><ele>312.49</ele><time>2026-08-10T16:54:09.000Z</time></trkpt>
        <trkpt lat="29.2821272" lon="104.2901644"><ele>312.57</ele><time>2026-08-10T16:54:11.000Z</time></trkpt>
        <trkpt lat="29.2820475" lon="104.2902858"><ele>312.24</ele><time>2026-08-10T16:54:13.000Z</time></trkpt>
        <trkpt lat="29.281953" lon="104.2903954"><ele>312</ele><time>2026-08-10T16:54:15.000Z</time></trkpt>
        <trkpt lat="29.2818472" lon="104.2904743"><ele>311.61</ele><time>2026-08-10T16:54:17.000Z</time></trkpt>
        <trkpt lat="29.2817262" lon="104.2905089"><ele>311.05</ele><time>2026-08-10T16:54:19.000Z</time></trkpt>
        <trkpt lat="29.2816021" lon="104.2904845"><ele>311.44</ele><time>2026-08-10T16:54:21.000Z</time></trkpt>
        <trkpt lat="29.2815" lon="104.2904172"><ele>311.74</ele><time>2026-08-10T16:54:23.000Z</time></trkpt>
        <trkpt lat="29.2814268" lon="104.290308"><ele>312.04</ele><time>2026-08-10T16:54:25.000Z</time></trkpt>
        <trkpt lat="29.2813849" lon="104.2901789"><ele>312.5</ele><time>2026-08-10T16:54:27.000Z</time></trkpt>
        <trkpt lat="29.281345" lon="104.2900494"><ele>312.96</ele><time>2026-08-10T16:54:29.000Z</time></trkpt>
        <trkpt lat="29.2813002" lon="104.2899406"><ele>313.39</ele><time>2026-08-10T16:54:31.000Z</time></trkpt>
        <trkpt lat="29.2812257" lon="104.2898569"><ele>313.72</ele><time>2026-08-10T16:54:33.000Z</time></trkpt>
        <trkpt lat="29.281123" lon="104.2898058"><ele>314.05</ele><time>2026-08-10T16:54:35.000Z</time></trkpt>
        <trkpt lat="29.2810001" lon="104.2897686"><ele>314.23</ele><time>2026-08-10T16:54:37.000Z</time></trkpt>
        <trkpt lat="29.2808714" lon="104.2897464"><ele>314.15</ele><time>2026-08-10T16:54:39.000Z</time></trkpt>
        <trkpt lat="29.2807433" lon="104.2897151"><ele>314.39</ele><time>2026-08-10T16:54:41.000Z</time></trkpt>
        <trkpt lat="29.280621" lon="104.2896804"><ele>314.53</ele><time>2026-08-10T16:54:43.000Z</time></trkpt>
        <trkpt lat="29.2804896" lon="104.2896466"><ele>314.45</ele><time>2026-08-10T16:54:45.000Z</time></trkpt>
        <trkpt lat="29.2803587" lon="104.2896311"><ele>314.25</ele><time>2026-08-10T16:54:47.000Z</time></trkpt>
        <trkpt lat="29.28024" lon="104.2896379"><ele>313.52</ele><time>2026-08-10T16:54:49.000Z</time></trkpt>
        <trkpt lat="29.2801255" lon="104.2896758"><ele>312.48</ele><time>2026-08-10T16:54:51.000Z</time></trkpt>
        <trkpt lat="29.2800191" lon="104.2897451"><ele>311.18</ele><time>2026-08-10T16:54:53.000Z</time></trkpt>
        <trkpt lat="29.2799154" lon="104.2898191"><ele>309.99</ele><time>2026-08-10T16:54:55.000Z</time></trkpt>
        <trkpt lat="29.2798034" lon="104.2898849"><ele>308.57</ele><time>2026-08-10T16:54:57.000Z</time></trkpt>
        <trkpt lat="29.2796689" lon="104.2899079"><ele>307.28</ele><time>2026-08-10T16:54:59.000Z</time></trkpt>
        <trkpt lat="29.2795204" lon="104.2898829"><ele>306.23</ele><time>2026-08-10T16:55:01.000Z</time></trkpt>
        <trkpt lat="29.27937" lon="104.289827"><ele>304.92</ele><time>2026-08-10T16:55:03.000Z</time></trkpt>
        <trkpt lat="29.2792242" lon="104.289781"><ele>303.77</ele><time>2026-08-10T16:55:05.000Z</time></trkpt>
        <trkpt lat="29.2791085" lon="104.2897508"><ele>302.58</ele><time>2026-08-10T16:55:07.000Z</time></trkpt>
        <trkpt lat="29.2789994" lon="104.2897449"><ele>301.95</ele><time>2026-08-10T16:55:11.000Z</time></trkpt>
        <trkpt lat="29.278907" lon="104.2897411"><ele>301.03</ele><time>2026-08-10T16:55:15.000Z</time></trkpt>
        <trkpt lat="29.2788194" lon="104.2897446"><ele>300.31</ele><time>2026-08-10T16:55:17.000Z</time></trkpt>
        <trkpt lat="29.2787176" lon="104.289751"><ele>299.68</ele><time>2026-08-10T16:55:19.000Z</time></trkpt>
        <trkpt lat="29.2786119" lon="104.2897524"><ele>299.05</ele><time>2026-08-10T16:55:21.000Z</time></trkpt>
        <trkpt lat="29.2784983" lon="104.2897513"><ele>297.57</ele><time>2026-08-10T16:55:23.000Z</time></trkpt>
        <trkpt lat="29.2783677" lon="104.289733"><ele>297.03</ele><time>2026-08-10T16:55:25.000Z</time></trkpt>
        <trkpt lat="29.2782299" lon="104.2897"><ele>296.36</ele><time>2026-08-10T16:55:27.000Z</time></trkpt>
        <trkpt lat="29.2780837" lon="104.2896413"><ele>295.27</ele><time>2026-08-10T16:55:29.000Z</time></trkpt>
        <trkpt lat="29.2779125" lon="104.2896055"><ele>293.84</ele><time>2026-08-10T16:55:33.000Z</time></trkpt>
        <trkpt lat="29.2777885" lon="104.2895854"><ele>292.24</ele><time>2026-08-10T16:55:35.000Z</time></trkpt>
        <trkpt lat="29.2776737" lon="104.2895703"><ele>290.99</ele><time>2026-08-10T16:55:37.000Z</time></trkpt>
        <trkpt lat="29.2775245" lon="104.2895586"><ele>290.64</ele><time>2026-08-10T16:55:41.000Z</time></trkpt>
        <trkpt lat="29.2773886" lon="104.2895966"><ele>291.24</ele><time>2026-08-10T16:55:45.000Z</time></trkpt>
        <trkpt lat="29.2772652" lon="104.2896758"><ele>291.51</ele><time>2026-08-10T16:55:49.000Z</time></trkpt>
        <trkpt lat="29.2771625" lon="104.2897641"><ele>292.71</ele><time>2026-08-10T16:55:53.000Z</time></trkpt>
        <trkpt lat="29.2770487" lon="104.2898775"><ele>294.61</ele><time>2026-08-10T16:55:57.000Z</time></trkpt>
        <trkpt lat="29.2769172" lon="104.289995"><ele>295.99</ele><time>2026-08-10T16:56:01.000Z</time></trkpt>
        <trkpt lat="29.2768254" lon="104.2900838"><ele>297.07</ele><time>2026-08-10T16:56:03.000Z</time></trkpt>
        <trkpt lat="29.276682" lon="104.2901928"><ele>297.54</ele><time>2026-08-10T16:56:07.000Z</time></trkpt>
        <trkpt lat="29.2765787" lon="104.290269"><ele>297.26</ele><time>2026-08-10T16:56:09.000Z</time></trkpt>
        <trkpt lat="29.2764886" lon="104.2903311"><ele>297.57</ele><time>2026-08-10T16:56:11.000Z</time></trkpt>
        <trkpt lat="29.2763413" lon="104.2904004"><ele>297.64</ele><time>2026-08-10T16:56:15.000Z</time></trkpt>
        <trkpt lat="29.2762253" lon="104.2904291"><ele>298.32</ele><time>2026-08-10T16:56:17.000Z</time></trkpt>
        <trkpt lat="29.2761235" lon="104.2904337"><ele>298.87</ele><time>2026-08-10T16:56:19.000Z</time></trkpt>
        <trkpt lat="29.2760281" lon="104.2904156"><ele>299.94</ele><time>2026-08-10T16:56:21.000Z</time></trkpt>
        <trkpt lat="29.2759141" lon="104.2903829"><ele>300.79</ele><time>2026-08-10T16:56:25.000Z</time></trkpt>
        <trkpt lat="29.275799" lon="104.2903501"><ele>300.69</ele><time>2026-08-10T16:56:29.000Z</time></trkpt>
        <trkpt lat="29.2757121" lon="104.2902846"><ele>301</ele><time>2026-08-10T16:56:33.000Z</time></trkpt>
        <trkpt lat="29.2756858" lon="104.290232"><ele>300.5</ele><time>2026-08-10T16:56:41.000Z</time></trkpt>
        <trkpt lat="29.2756283" lon="104.2901648"><ele>299.92</ele><time>2026-08-10T16:58:15.000Z</time></trkpt>
        <trkpt lat="29.2756035" lon="104.290052"><ele>300.41</ele><time>2026-08-10T16:58:27.000Z</time></trkpt>
        <trkpt lat="29.2756035" lon="104.290052"><ele>300.41</ele><time>2026-08-10T17:00:49.000Z</time></trkpt>
      </trkseg>
  </trk>
</gpx>